createdAt,value
2023-01-21T00:00:13.699Z,1023.64
2023-01-21T00:01:13.658Z,1023.71
2023-01-21T00:02:14.199Z,1023.68
2023-01-21T00:03:13.247Z,1023.71
2023-01-21T00:04:13.261Z,1023.71
2023-01-21T00:05:13.245Z,1023.71
2023-01-21T00:06:14.675Z,1023.81
2023-01-21T00:07:13.565Z,1023.80
2023-01-21T00:08:13.842Z,1023.84
2023-01-21T00:09:14.112Z,1023.82
2023-01-21T00:10:13.281Z,1023.86
2023-01-21T00:11:13.164Z,1023.89
2023-01-21T00:12:13.125Z,1023.92
2023-01-21T00:13:13.028Z,1023.91
2023-01-21T00:14:12.977Z,1023.97
2023-01-21T00:15:13.159Z,1023.98
2023-01-21T00:16:13.515Z,1024.00
2023-01-21T00:17:13.626Z,1023.95
2023-01-21T00:18:13.598Z,1023.99
2023-01-21T00:19:13.891Z,1023.99
2023-01-21T00:20:12.856Z,1024.01
2023-01-21T00:21:13.867Z,1024.02
2023-01-21T00:22:13.879Z,1024.06
2023-01-21T00:23:13.965Z,1024.08
2023-01-21T00:24:13.145Z,1024.10
2023-01-21T00:25:13.127Z,1024.16
2023-01-21T00:26:13.048Z,1024.15
2023-01-21T00:27:13.078Z,1024.10
2023-01-21T00:28:13.087Z,1024.13
2023-01-21T00:29:13.932Z,1024.15
2023-01-21T00:30:12.853Z,1024.13
2023-01-21T00:31:13.146Z,1024.17
2023-01-21T00:32:13.557Z,1024.19
2023-01-21T00:33:13.522Z,1024.22
2023-01-21T00:34:13.657Z,1024.23
2023-01-21T00:35:13.578Z,1024.23
2023-01-21T00:36:13.626Z,1024.26
2023-01-21T00:37:14.026Z,1024.25
2023-01-21T00:38:13.479Z,1024.26
2023-01-21T00:39:13.439Z,1024.25
2023-01-21T00:40:13.338Z,1024.30
2023-01-21T00:41:13.358Z,1024.31
2023-01-21T00:42:13.580Z,1024.30
2023-01-21T00:43:13.762Z,1024.29
2023-01-21T00:44:13.624Z,1024.32
2023-01-21T00:45:13.596Z,1024.34
2023-01-21T00:46:13.540Z,1024.37
2023-01-21T00:47:13.999Z,1024.42
2023-01-21T00:48:12.915Z,1024.40
2023-01-21T00:49:13.033Z,1024.45
2023-01-21T00:50:13.050Z,1024.47
2023-01-21T00:51:13.499Z,1024.50
2023-01-21T00:52:13.571Z,1024.53
2023-01-21T00:53:13.615Z,1024.51
2023-01-21T00:54:13.990Z,1024.53
2023-01-21T00:55:13.157Z,1024.59
2023-01-21T00:56:13.207Z,1024.60
2023-01-21T00:57:13.375Z,1024.58
2023-01-21T00:58:14.192Z,1024.60
2023-01-21T00:59:13.690Z,1024.63
2023-01-21T01:00:13.925Z,1024.60
2023-01-21T01:01:12.854Z,1024.65
2023-01-21T01:02:14.202Z,1024.63
2023-01-21T01:03:13.203Z,1024.67
2023-01-21T01:04:13.213Z,1024.70
2023-01-21T01:05:13.137Z,1024.75
2023-01-21T01:06:13.471Z,1024.77
2023-01-21T01:07:13.486Z,1024.75
2023-01-21T01:08:13.953Z,1024.75
2023-01-21T01:09:13.165Z,1024.77
2023-01-21T01:10:13.502Z,1024.78
2023-01-21T01:11:13.513Z,1024.81
2023-01-21T01:12:13.442Z,1024.81
2023-01-21T01:13:13.744Z,1024.83
2023-01-21T01:14:14.033Z,1024.87
2023-01-21T01:15:13.065Z,1024.87
2023-01-21T01:16:14.400Z,1024.89
2023-01-21T01:17:13.812Z,1024.92
2023-01-21T01:18:14.230Z,1024.94
2023-01-21T01:19:13.608Z,1024.94
2023-01-21T01:20:13.750Z,1025.01
2023-01-21T01:21:14.219Z,1025.00
2023-01-21T01:22:13.325Z,1025.02
2023-01-21T01:23:13.727Z,1025.03
2023-01-21T01:24:13.965Z,1025.06
2023-01-21T01:25:13.038Z,1025.08
2023-01-21T01:26:13.364Z,1025.12
2023-01-21T01:27:13.235Z,1025.09
2023-01-21T01:28:13.494Z,1025.17
2023-01-21T01:29:13.606Z,1025.17
2023-01-21T01:30:13.699Z,1025.22
2023-01-21T01:31:13.937Z,1025.23
2023-01-21T01:32:13.204Z,1025.22
2023-01-21T01:33:13.785Z,1025.27
2023-01-21T01:34:13.761Z,1025.28
2023-01-21T01:35:13.828Z,1025.31
2023-01-21T01:36:14.247Z,1025.35
2023-01-21T01:37:13.286Z,1025.33
2023-01-21T01:38:13.251Z,1025.32
2023-01-21T01:39:13.250Z,1025.38
2023-01-21T01:40:13.462Z,1025.33
2023-01-21T01:41:13.632Z,1025.34
2023-01-21T01:42:13.787Z,1025.38
2023-01-21T01:43:14.009Z,1025.36
2023-01-21T01:44:13.030Z,1025.40
2023-01-21T01:45:13.291Z,1025.45
2023-01-21T01:46:13.360Z,1025.47
2023-01-21T01:47:13.355Z,1025.50
2023-01-21T01:48:13.302Z,1025.53
2023-01-21T01:49:13.380Z,1025.55
2023-01-21T01:50:13.552Z,1025.54
2023-01-21T01:51:13.957Z,1025.56
2023-01-21T01:52:12.922Z,1025.56
2023-01-21T01:53:13.119Z,1025.53
2023-01-21T01:54:13.018Z,1025.57
2023-01-21T01:55:12.941Z,1025.60
2023-01-21T01:56:12.968Z,1025.58
2023-01-21T01:57:13.243Z,1025.62
2023-01-21T01:58:13.305Z,1025.61
2023-01-21T01:59:13.570Z,1025.60
2023-01-21T02:00:14.900Z,1025.66
2023-01-21T02:01:13.181Z,1025.66
2023-01-21T02:02:13.079Z,1025.69
2023-01-21T02:03:13.044Z,1025.66
2023-01-21T02:04:12.995Z,1025.68
2023-01-21T02:05:13.129Z,1025.68
2023-01-21T02:06:13.125Z,1025.69
2023-01-21T02:07:13.074Z,1025.66
2023-01-21T02:08:13.031Z,1025.67
2023-01-21T02:09:13.315Z,1025.66
2023-01-21T02:10:13.323Z,1025.65
2023-01-21T02:11:18.650Z,1025.68
2023-01-21T02:12:13.772Z,1025.69
2023-01-21T02:13:13.749Z,1025.66
2023-01-21T02:14:13.640Z,1025.70
2023-01-21T02:15:13.512Z,1025.71
2023-01-21T02:16:13.701Z,1025.72
2023-01-21T02:17:13.898Z,1025.72
2023-01-21T02:18:12.885Z,1025.71
2023-01-21T02:19:13.899Z,1025.72
2023-01-21T02:20:14.202Z,1025.73
2023-01-21T02:21:13.318Z,1025.77
2023-01-21T02:22:13.489Z,1025.76
2023-01-21T02:23:13.440Z,1025.74
2023-01-21T02:24:13.414Z,1025.78
2023-01-21T02:25:13.397Z,1025.78
2023-01-21T02:26:13.503Z,1025.79
2023-01-21T02:27:13.608Z,1025.78
2023-01-21T02:28:13.798Z,1025.77
2023-01-21T02:29:13.880Z,1025.78
2023-01-21T02:30:14.075Z,1025.77
2023-01-21T02:31:13.280Z,1025.79
2023-01-21T02:32:13.362Z,1025.80
2023-01-21T02:33:13.622Z,1025.76
2023-01-21T02:34:13.625Z,1025.79
2023-01-21T02:35:13.833Z,1025.77
2023-01-21T02:36:13.873Z,1025.79
2023-01-21T02:37:13.873Z,1025.83
2023-01-21T02:38:14.048Z,1025.80
2023-01-21T02:39:13.158Z,1025.84
2023-01-21T02:40:13.082Z,1025.83
2023-01-21T02:41:13.269Z,1025.86
2023-01-21T02:42:13.408Z,1025.90
2023-01-21T02:43:13.405Z,1025.93
2023-01-21T02:44:13.307Z,1025.92
2023-01-21T02:45:13.305Z,1025.94
2023-01-21T02:46:13.222Z,1025.95
2023-01-21T02:47:13.490Z,1025.93
2023-01-21T02:48:13.474Z,1025.94
2023-01-21T02:49:13.568Z,1025.93
2023-01-21T02:50:13.544Z,1025.92
2023-01-21T02:51:14.024Z,1025.95
2023-01-21T02:52:18.285Z,1025.98
2023-01-21T02:53:13.243Z,1025.97
2023-01-21T02:54:13.483Z,1026.01
2023-01-21T02:55:13.398Z,1026.04
2023-01-21T02:56:13.321Z,1025.99
2023-01-21T02:57:13.402Z,1026.05
2023-01-21T02:58:13.720Z,1026.06
2023-01-21T02:59:14.084Z,1026.07
2023-01-21T03:00:13.215Z,1026.08
2023-01-21T03:01:13.664Z,1026.10
2023-01-21T03:02:14.350Z,1026.08
2023-01-21T03:03:13.460Z,1026.11
2023-01-21T03:04:13.272Z,1026.10
2023-01-21T03:05:13.181Z,1026.07
2023-01-21T03:06:13.363Z,1026.05
2023-01-21T03:07:13.500Z,1026.06
2023-01-21T03:08:13.758Z,1026.07
2023-01-21T03:09:13.932Z,1026.06
2023-01-21T03:10:13.076Z,1026.08
2023-01-21T03:11:13.363Z,1026.12
2023-01-21T03:12:13.228Z,1026.13
2023-01-21T03:13:13.433Z,1026.10
2023-01-21T03:14:13.578Z,1026.14
2023-01-21T03:15:13.520Z,1026.16
2023-01-21T03:16:13.755Z,1026.15
2023-01-21T03:17:13.786Z,1026.13
2023-01-21T03:18:13.844Z,1026.15
2023-01-21T03:19:14.092Z,1026.14
2023-01-21T03:20:13.028Z,1026.15
2023-01-21T03:21:12.909Z,1026.19
2023-01-21T03:22:12.912Z,1026.19
2023-01-21T03:23:13.159Z,1026.22
2023-01-21T03:24:13.315Z,1026.21
2023-01-21T03:25:13.470Z,1026.22
2023-01-21T03:26:13.298Z,1026.25
2023-01-21T03:27:13.290Z,1026.25
2023-01-21T03:28:13.375Z,1026.26
2023-01-21T03:29:13.301Z,1026.26
2023-01-21T03:30:13.231Z,1026.27
2023-01-21T03:31:13.318Z,1026.27
2023-01-21T03:32:13.734Z,1026.26
2023-01-21T03:33:13.731Z,1026.33
2023-01-21T03:34:13.655Z,1026.32
2023-01-21T03:35:13.630Z,1026.30
2023-01-21T03:36:13.823Z,1026.31
2023-01-21T03:37:14.042Z,1026.34
2023-01-21T03:38:13.471Z,1026.33
2023-01-21T03:39:13.381Z,1026.34
2023-01-21T03:40:13.337Z,1026.33
2023-01-21T03:41:13.315Z,1026.37
2023-01-21T03:42:13.259Z,1026.35
2023-01-21T03:43:13.375Z,1026.36
2023-01-21T03:44:13.357Z,1026.35
2023-01-21T03:45:13.307Z,1026.37
2023-01-21T03:46:13.763Z,1026.40
2023-01-21T03:47:13.863Z,1026.44
2023-01-21T03:48:13.775Z,1026.43
2023-01-21T03:49:13.678Z,1026.44
2023-01-21T03:50:13.955Z,1026.45
2023-01-21T03:51:13.317Z,1026.47
2023-01-21T03:52:13.430Z,1026.48
2023-01-21T03:53:13.452Z,1026.51
2023-01-21T03:54:13.427Z,1026.54
2023-01-21T03:55:13.334Z,1026.53
2023-01-21T03:56:13.222Z,1026.52
2023-01-21T03:57:13.119Z,1026.51
2023-01-21T03:58:13.519Z,1026.53
2023-01-21T03:59:13.381Z,1026.55
2023-01-21T04:00:13.399Z,1026.55
2023-01-21T04:01:13.561Z,1026.57
2023-01-21T04:02:13.733Z,1026.52
2023-01-21T04:03:14.049Z,1026.54
2023-01-21T04:04:13.044Z,1026.54
2023-01-21T04:05:12.965Z,1026.56
2023-01-21T04:06:13.237Z,1026.52
2023-01-21T04:07:13.399Z,1026.55
2023-01-21T04:08:13.455Z,1026.54
2023-01-21T04:09:13.385Z,1026.54
2023-01-21T04:10:13.230Z,1026.53
2023-01-21T04:11:13.193Z,1026.58
2023-01-21T04:12:13.535Z,1026.57
2023-01-21T04:13:13.408Z,1026.60
2023-01-21T04:14:13.244Z,1026.62
2023-01-21T04:15:13.161Z,1026.63
2023-01-21T04:16:13.073Z,1026.64
2023-01-21T04:17:13.060Z,1026.65
2023-01-21T04:18:12.942Z,1026.69
2023-01-21T04:19:12.876Z,1026.75
2023-01-21T04:20:12.841Z,1026.72
2023-01-21T04:21:13.766Z,1026.78
2023-01-21T04:22:13.935Z,1026.72
2023-01-21T04:23:12.857Z,1026.74
2023-01-21T04:24:13.958Z,1026.76
2023-01-21T04:25:12.903Z,1026.76
2023-01-21T04:26:12.759Z,1026.78
2023-01-21T04:27:13.868Z,1026.80
2023-01-21T04:28:13.844Z,1026.81
2023-01-21T04:29:14.028Z,1026.80
2023-01-21T04:30:12.945Z,1026.80
2023-01-21T04:31:12.921Z,1026.79
2023-01-21T04:32:12.964Z,1026.75
2023-01-21T04:33:12.923Z,1026.75
2023-01-21T04:34:12.997Z,1026.77
2023-01-21T04:35:12.902Z,1026.79
2023-01-21T04:36:12.885Z,1026.75
2023-01-21T04:37:12.919Z,1026.77
2023-01-21T04:38:12.961Z,1026.79
2023-01-21T04:39:12.862Z,1026.79
2023-01-21T04:40:12.915Z,1026.81
2023-01-21T04:41:13.101Z,1026.82
2023-01-21T04:42:12.928Z,1026.84
2023-01-21T04:43:12.867Z,1026.86
2023-01-21T04:44:12.974Z,1026.82
2023-01-21T04:45:13.037Z,1026.84
2023-01-21T04:46:13.084Z,1026.85
2023-01-21T04:47:13.035Z,1026.81
2023-01-21T04:48:12.932Z,1026.84
2023-01-21T04:49:13.191Z,1026.83
2023-01-21T04:50:13.275Z,1026.82
2023-01-21T04:51:13.529Z,1026.83
2023-01-21T04:52:13.572Z,1026.83
2023-01-21T04:53:13.504Z,1026.86
2023-01-21T04:54:13.431Z,1026.80
2023-01-21T04:55:13.654Z,1026.81
2023-01-21T04:56:13.557Z,1026.84
2023-01-21T04:57:13.550Z,1026.86
2023-01-21T04:58:13.550Z,1026.89
2023-01-21T04:59:13.592Z,1026.96
2023-01-21T05:00:13.861Z,1026.98
2023-01-21T05:01:12.947Z,1027.01
2023-01-21T05:02:13.009Z,1027.02
2023-01-21T05:03:12.956Z,1027.00
2023-01-21T05:04:12.947Z,1027.00
2023-01-21T05:05:12.877Z,1026.99
2023-01-21T05:06:13.754Z,1027.00
2023-01-21T05:07:13.721Z,1027.03
2023-01-21T05:08:14.902Z,1027.04
2023-01-21T05:09:12.887Z,1027.09
2023-01-21T05:10:12.890Z,1027.12
2023-01-21T05:11:12.867Z,1027.06
2023-01-21T05:12:13.708Z,1027.05
2023-01-21T05:13:13.637Z,1027.05
2023-01-21T05:14:14.024Z,1027.04
2023-01-21T05:15:13.021Z,1027.03
2023-01-21T05:16:12.914Z,1027.04
2023-01-21T05:17:13.043Z,1027.02
2023-01-21T05:18:12.991Z,1027.05
2023-01-21T05:19:12.883Z,1027.02
2023-01-21T05:20:13.796Z,1027.05
2023-01-21T05:21:14.203Z,1027.06
2023-01-21T05:22:13.116Z,1027.06
2023-01-21T05:23:13.202Z,1027.08
2023-01-21T05:24:13.563Z,1027.10
2023-01-21T05:25:13.558Z,1027.14
2023-01-21T05:26:13.486Z,1027.14
2023-01-21T05:27:13.683Z,1027.16
2023-01-21T05:28:13.786Z,1027.17
2023-01-21T05:29:13.963Z,1027.21
2023-01-21T05:30:12.985Z,1027.20
2023-01-21T05:31:13.131Z,1027.24
2023-01-21T05:32:13.147Z,1027.26
2023-01-21T05:33:13.205Z,1027.27
2023-01-21T05:34:13.935Z,1027.24
2023-01-21T05:35:12.918Z,1027.27
2023-01-21T05:36:12.954Z,1027.23
2023-01-21T05:37:13.133Z,1027.23
2023-01-21T05:38:13.140Z,1027.20
2023-01-21T05:39:13.046Z,1027.28
2023-01-21T05:40:12.888Z,1027.34
2023-01-21T05:41:13.019Z,1027.39
2023-01-21T05:42:13.165Z,1027.40
2023-01-21T05:43:13.421Z,1027.37
2023-01-21T05:44:13.408Z,1027.40
2023-01-21T05:45:18.339Z,1027.43
2023-01-21T05:46:13.337Z,1027.46
2023-01-21T05:47:13.483Z,1027.46
2023-01-21T05:48:13.412Z,1027.46
2023-01-21T05:49:13.330Z,1027.47
2023-01-21T05:50:13.233Z,1027.44
2023-01-21T05:51:13.209Z,1027.44
2023-01-21T05:52:13.170Z,1027.46
2023-01-21T05:53:13.140Z,1027.46
2023-01-21T05:54:13.047Z,1027.48
2023-01-21T05:55:13.270Z,1027.44
2023-01-21T05:56:13.335Z,1027.48
2023-01-21T05:57:13.447Z,1027.55
2023-01-21T05:58:13.613Z,1027.56
2023-01-21T05:59:13.905Z,1027.61
2023-01-21T06:00:13.233Z,1027.60
2023-01-21T06:01:13.301Z,1027.65
2023-01-21T06:02:13.680Z,1027.64
2023-01-21T06:03:13.754Z,1027.66
2023-01-21T06:04:14.105Z,1027.69
2023-01-21T06:05:13.394Z,1027.71
2023-01-21T06:06:14.466Z,1027.73
2023-01-21T06:07:13.542Z,1027.74
2023-01-21T06:08:13.866Z,1027.75
2023-01-21T06:09:14.040Z,1027.76
2023-01-21T06:10:12.915Z,1027.79
2023-01-21T06:11:12.848Z,1027.80
2023-01-21T06:12:14.145Z,1027.82
2023-01-21T06:13:13.098Z,1027.85
2023-01-21T06:14:13.035Z,1027.88
2023-01-21T06:15:13.043Z,1027.88
2023-01-21T06:16:13.109Z,1027.92
2023-01-21T06:17:13.400Z,1027.93
2023-01-21T06:18:13.445Z,1027.96
2023-01-21T06:19:13.489Z,1027.98
2023-01-21T06:20:13.368Z,1028.00
2023-01-21T06:21:13.441Z,1028.03
2023-01-21T06:22:13.416Z,1028.03
2023-01-21T06:23:13.382Z,1028.04
2023-01-21T06:24:13.544Z,1028.08
2023-01-21T06:25:13.432Z,1028.14
2023-01-21T06:26:13.834Z,1028.13
2023-01-21T06:27:14.296Z,1028.15
2023-01-21T06:28:13.885Z,1028.21
2023-01-21T06:29:12.844Z,1028.22
2023-01-21T06:30:14.167Z,1028.23
2023-01-21T06:31:13.618Z,1028.22
2023-01-21T06:32:13.897Z,1028.21
2023-01-21T06:33:12.950Z,1028.20
2023-01-21T06:34:12.900Z,1028.19
2023-01-21T06:35:12.915Z,1028.24
2023-01-21T06:36:13.117Z,1028.23
2023-01-21T06:37:13.066Z,1028.25
2023-01-21T06:38:13.242Z,1028.21
2023-01-21T06:39:13.485Z,1028.23
2023-01-21T06:40:13.711Z,1028.24
2023-01-21T06:41:13.747Z,1028.26
2023-01-21T06:42:13.847Z,1028.25
2023-01-21T06:43:14.103Z,1028.30
2023-01-21T06:44:13.216Z,1028.30
2023-01-21T06:45:13.101Z,1028.29
2023-01-21T06:46:13.280Z,1028.30
2023-01-21T06:47:13.271Z,1028.27
2023-01-21T06:48:13.373Z,1028.32
2023-01-21T06:49:13.256Z,1028.34
2023-01-21T06:50:13.308Z,1028.31
2023-01-21T06:51:13.476Z,1028.31
2023-01-21T06:52:13.457Z,1028.31
2023-01-21T06:53:13.468Z,1028.33
2023-01-21T06:54:13.750Z,1028.35
2023-01-21T06:55:13.752Z,1028.30
2023-01-21T06:56:14.030Z,1028.29
2023-01-21T06:57:13.480Z,1028.32
2023-01-21T06:58:13.957Z,1028.32
2023-01-21T06:59:13.399Z,1028.29
2023-01-21T07:00:13.356Z,1028.30
2023-01-21T07:01:13.384Z,1028.30
2023-01-21T07:02:13.706Z,1028.32
2023-01-21T07:03:14.053Z,1028.34
2023-01-21T07:04:12.973Z,1028.38
2023-01-21T07:05:12.948Z,1028.37
2023-01-21T07:06:12.810Z,1028.41
2023-01-21T07:07:13.969Z,1028.37
2023-01-21T07:08:13.173Z,1028.39
2023-01-21T07:09:13.141Z,1028.44
2023-01-21T07:10:13.237Z,1028.46
2023-01-21T07:11:13.488Z,1028.48
2023-01-21T07:12:13.416Z,1028.45
2023-01-21T07:13:13.548Z,1028.50
2023-01-21T07:14:18.716Z,1028.50
2023-01-21T07:15:13.859Z,1028.53
2023-01-21T07:16:14.057Z,1028.55
2023-01-21T07:17:13.319Z,1028.55
2023-01-21T07:18:13.316Z,1028.56
2023-01-21T07:19:13.442Z,1028.59
2023-01-21T07:20:13.757Z,1028.60
2023-01-21T07:21:13.703Z,1028.64
2023-01-21T07:22:13.633Z,1028.61
2023-01-21T07:23:13.807Z,1028.59
2023-01-21T07:24:14.005Z,1028.65
2023-01-21T07:25:13.102Z,1028.63
2023-01-21T07:26:13.234Z,1028.65
2023-01-21T07:27:13.178Z,1028.67
2023-01-21T07:28:13.060Z,1028.69
2023-01-21T07:29:13.258Z,1028.70
2023-01-21T07:30:13.583Z,1028.71
2023-01-21T07:31:13.869Z,1028.71
2023-01-21T07:32:13.048Z,1028.73
2023-01-21T07:33:13.269Z,1028.75
2023-01-21T07:34:13.169Z,1028.77
2023-01-21T07:35:13.515Z,1028.77
2023-01-21T07:36:13.502Z,1028.75
2023-01-21T07:37:13.370Z,1028.77
2023-01-21T07:38:13.458Z,1028.81
2023-01-21T07:39:13.498Z,1028.83
2023-01-21T07:40:13.636Z,1028.86
2023-01-21T07:41:13.484Z,1028.85
2023-01-21T07:42:13.458Z,1028.85
2023-01-21T07:43:13.342Z,1028.86
2023-01-21T07:44:13.511Z,1028.89
2023-01-21T07:45:13.486Z,1028.87
2023-01-21T07:46:13.485Z,1028.87
2023-01-21T07:47:13.537Z,1028.85
2023-01-21T07:48:13.588Z,1028.86
2023-01-21T07:49:13.815Z,1028.90
2023-01-21T07:50:13.968Z,1028.90
2023-01-21T07:51:12.906Z,1028.97
2023-01-21T07:52:12.833Z,1028.96
2023-01-21T07:53:13.950Z,1028.96
2023-01-21T07:54:12.921Z,1028.99
2023-01-21T07:55:12.958Z,1029.00
2023-01-21T07:56:13.081Z,1028.96
2023-01-21T07:57:13.031Z,1028.95
2023-01-21T07:58:13.075Z,1028.99
2023-01-21T07:59:13.220Z,1028.99
2023-01-21T08:00:13.203Z,1029.01
2023-01-21T08:01:13.192Z,1028.99
2023-01-21T08:02:13.293Z,1029.02
2023-01-21T08:03:13.473Z,1029.07
2023-01-21T08:04:13.508Z,1029.07
2023-01-21T08:05:13.409Z,1029.10
2023-01-21T08:06:13.322Z,1029.09
2023-01-21T08:07:13.406Z,1029.12
2023-01-21T08:08:13.244Z,1029.13
2023-01-21T08:09:13.528Z,1029.14
2023-01-21T08:10:13.625Z,1029.16
2023-01-21T08:11:14.045Z,1029.16
2023-01-21T08:12:12.943Z,1029.14
2023-01-21T08:13:12.898Z,1029.16
2023-01-21T08:14:12.806Z,1029.18
2023-01-21T08:15:13.940Z,1029.18
2023-01-21T08:16:12.956Z,1029.20
2023-01-21T08:17:12.879Z,1029.20
2023-01-21T08:18:13.958Z,1029.19
2023-01-21T08:19:14.001Z,1029.19
2023-01-21T08:20:13.143Z,1029.22
2023-01-21T08:21:13.327Z,1029.21
2023-01-21T08:22:13.309Z,1029.24
2023-01-21T08:23:13.225Z,1029.22
2023-01-21T08:24:13.455Z,1029.24
2023-01-21T08:25:13.379Z,1029.28
2023-01-21T08:26:13.303Z,1029.25
2023-01-21T08:27:13.597Z,1029.27
2023-01-21T08:28:13.780Z,1029.31
2023-01-21T08:29:13.783Z,1029.30
2023-01-21T08:30:13.674Z,1029.32
2023-01-21T08:31:13.820Z,1029.33
2023-01-21T08:32:13.933Z,1029.30
2023-01-21T08:33:13.028Z,1029.34
2023-01-21T08:34:13.092Z,1029.34
2023-01-21T08:35:13.318Z,1029.34
2023-01-21T08:36:13.311Z,1029.38
2023-01-21T08:37:13.597Z,1029.34
2023-01-21T08:38:13.593Z,1029.33
2023-01-21T08:39:19.947Z,1029.37
2023-01-21T08:40:16.050Z,1029.36
2023-01-21T08:41:13.260Z,1029.37
2023-01-21T08:42:13.161Z,1029.38
2023-01-21T08:43:13.080Z,1029.38
2023-01-21T08:44:13.303Z,1029.40
2023-01-21T08:45:15.305Z,1029.43
2023-01-21T08:46:13.922Z,1029.46
2023-01-21T08:47:12.974Z,1029.45
2023-01-21T08:48:13.297Z,1029.48
2023-01-21T08:49:13.500Z,1029.49
2023-01-21T08:50:13.923Z,1029.49
2023-01-21T08:51:13.291Z,1029.51
2023-01-21T08:52:13.401Z,1029.53
2023-01-21T08:53:13.305Z,1029.53
2023-01-21T08:54:13.397Z,1029.54
2023-01-21T08:55:13.464Z,1029.52
2023-01-21T08:56:13.414Z,1029.53
2023-01-21T08:57:13.592Z,1029.54
2023-01-21T08:58:13.609Z,1029.60
2023-01-21T08:59:13.744Z,1029.57
2023-01-21T09:00:13.737Z,1029.62
2023-01-21T09:01:13.680Z,1029.57
2023-01-21T09:02:13.641Z,1029.64
2023-01-21T09:03:13.636Z,1029.63
2023-01-21T09:04:13.631Z,1029.63
2023-01-21T09:05:13.575Z,1029.65
2023-01-21T09:06:13.484Z,1029.65
2023-01-21T09:07:13.728Z,1029.65
2023-01-21T09:08:13.984Z,1029.66
2023-01-21T09:09:12.917Z,1029.66
2023-01-21T09:10:12.854Z,1029.66
2023-01-21T09:11:13.814Z,1029.65
2023-01-21T09:12:13.826Z,1029.63
2023-01-21T09:13:13.834Z,1029.67
2023-01-21T09:14:13.880Z,1029.66
2023-01-21T09:15:14.075Z,1029.68
2023-01-21T09:16:13.289Z,1029.64
2023-01-21T09:17:13.141Z,1029.66
2023-01-21T09:18:13.013Z,1029.66
2023-01-21T09:19:12.906Z,1029.64
2023-01-21T09:20:12.956Z,1029.66
2023-01-21T09:21:12.970Z,1029.71
2023-01-21T09:22:13.086Z,1029.73
2023-01-21T09:23:13.256Z,1029.72
2023-01-21T09:24:13.216Z,1029.73
2023-01-21T09:25:13.447Z,1029.76
2023-01-21T09:26:13.895Z,1029.81
2023-01-21T09:27:13.088Z,1029.74
2023-01-21T09:28:13.360Z,1029.76
2023-01-21T09:29:13.272Z,1029.80
2023-01-21T09:30:13.203Z,1029.81
2023-01-21T09:31:13.475Z,1029.84
2023-01-21T09:32:13.795Z,1029.82
2023-01-21T09:33:13.764Z,1029.83
2023-01-21T09:34:13.677Z,1029.88
2023-01-21T09:35:13.640Z,1029.78
2023-01-21T09:36:13.540Z,1029.80
2023-01-21T09:37:13.463Z,1029.81
2023-01-21T09:38:13.805Z,1029.81
2023-01-21T09:39:13.837Z,1029.81
2023-01-21T09:40:12.851Z,1029.84
2023-01-21T09:41:13.782Z,1029.89
2023-01-21T09:42:13.760Z,1029.85
2023-01-21T09:43:13.766Z,1029.83
2023-01-21T09:44:14.217Z,1029.88
2023-01-21T09:45:13.487Z,1029.91
2023-01-21T09:46:13.603Z,1029.94
2023-01-21T09:47:13.525Z,1029.95
2023-01-21T09:48:13.478Z,1029.90
2023-01-21T09:49:13.457Z,1029.94
2023-01-21T09:50:13.310Z,1029.94
2023-01-21T09:51:13.614Z,1030.00
2023-01-21T09:52:14.272Z,1029.97
2023-01-21T09:53:13.187Z,1029.98
2023-01-21T09:54:13.161Z,1030.00
2023-01-21T09:55:13.201Z,1030.04
2023-01-21T09:56:13.685Z,1030.07
2023-01-21T09:57:13.679Z,1030.05
2023-01-21T09:58:13.654Z,1030.04
2023-01-21T09:59:14.169Z,1030.09
2023-01-21T10:00:13.383Z,1030.06
2023-01-21T10:01:13.656Z,1030.09
2023-01-21T10:02:13.674Z,1030.09
2023-01-21T10:03:13.766Z,1030.13
2023-01-21T10:04:13.827Z,1030.14
2023-01-21T10:05:13.827Z,1030.12
2023-01-21T10:06:14.056Z,1030.13
2023-01-21T10:07:13.266Z,1030.14
2023-01-21T10:08:13.221Z,1030.11
2023-01-21T10:09:13.520Z,1030.11
2023-01-21T10:10:13.594Z,1030.13
2023-01-21T10:11:13.650Z,1030.13
2023-01-21T10:12:13.951Z,1030.18
2023-01-21T10:13:13.237Z,1030.19
2023-01-21T10:14:13.446Z,1030.18
2023-01-21T10:15:13.337Z,1030.19
2023-01-21T10:16:13.724Z,1030.17
2023-01-21T10:17:13.885Z,1030.20
2023-01-21T10:18:12.985Z,1030.23
2023-01-21T10:19:12.922Z,1030.23
2023-01-21T10:20:13.021Z,1030.17
2023-01-21T10:21:12.997Z,1030.19
2023-01-21T10:22:13.468Z,1030.19
2023-01-21T10:23:13.791Z,1030.20
2023-01-21T10:24:14.233Z,1030.19
2023-01-21T10:25:13.317Z,1030.18
2023-01-21T10:26:13.692Z,1030.21
2023-01-21T10:27:13.939Z,1030.19
2023-01-21T10:28:12.879Z,1030.24
2023-01-21T10:29:12.867Z,1030.26
2023-01-21T10:30:13.776Z,1030.28
2023-01-21T10:31:14.122Z,1030.26
2023-01-21T10:32:13.433Z,1030.24
2023-01-21T10:33:13.718Z,1030.22
2023-01-21T10:34:13.735Z,1030.26
2023-01-21T10:35:13.666Z,1030.21
2023-01-21T10:36:13.632Z,1030.21
2023-01-21T10:37:13.579Z,1030.24
2023-01-21T10:38:14.023Z,1030.21
2023-01-21T10:39:13.072Z,1030.22
2023-01-21T10:40:13.301Z,1030.22
2023-01-21T10:41:13.542Z,1030.23
2023-01-21T10:42:13.609Z,1030.18
2023-01-21T10:43:13.544Z,1030.19
2023-01-21T10:44:14.808Z,1030.17
2023-01-21T10:45:14.128Z,1030.18
2023-01-21T10:46:13.539Z,1030.12
2023-01-21T10:47:13.766Z,1030.13
2023-01-21T10:48:13.796Z,1030.11
2023-01-21T10:49:13.965Z,1030.07
2023-01-21T10:50:13.396Z,1030.13
2023-01-21T10:51:13.608Z,1030.10
2023-01-21T10:52:13.635Z,1030.11
2023-01-21T10:53:13.887Z,1030.16
2023-01-21T10:54:13.214Z,1030.10
2023-01-21T10:55:13.078Z,1030.13
2023-01-21T10:56:12.996Z,1030.15
2023-01-21T10:57:13.469Z,1030.17
2023-01-21T10:58:13.714Z,1030.14
2023-01-21T10:59:13.788Z,1030.16
2023-01-21T11:00:13.720Z,1030.14
2023-01-21T11:01:13.778Z,1030.18
2023-01-21T11:02:14.383Z,1030.18
2023-01-21T11:03:13.337Z,1030.15
2023-01-21T11:04:13.857Z,1030.17
2023-01-21T11:05:12.951Z,1030.15
2023-01-21T11:06:13.028Z,1030.16
2023-01-21T11:07:13.146Z,1030.17
2023-01-21T11:08:14.285Z,1030.15
2023-01-21T11:09:13.321Z,1030.14
2023-01-21T11:10:13.279Z,1030.15
2023-01-21T11:11:13.522Z,1030.16
2023-01-21T11:12:13.494Z,1030.16
2023-01-21T11:13:13.479Z,1030.17
2023-01-21T11:14:13.960Z,1030.15
2023-01-21T11:15:12.971Z,1030.17
2023-01-21T11:16:13.090Z,1030.16
2023-01-21T11:17:13.082Z,1030.16
2023-01-21T11:18:13.331Z,1030.14
2023-01-21T11:19:13.758Z,1030.11
2023-01-21T11:20:13.806Z,1030.13
2023-01-21T11:21:13.791Z,1030.13
2023-01-21T11:22:15.304Z,1030.17
2023-01-21T11:23:13.935Z,1030.12
2023-01-21T11:24:13.072Z,1030.18
2023-01-21T11:25:13.480Z,1030.20
2023-01-21T11:26:13.510Z,1030.16
2023-01-21T11:27:13.494Z,1030.19
2023-01-21T11:28:18.482Z,1030.21
2023-01-21T11:29:13.513Z,1030.25
2023-01-21T11:30:37.092Z,1030.24
2023-01-21T11:31:14.238Z,1030.20
2023-01-21T11:32:13.629Z,1030.19
2023-01-21T11:33:13.742Z,1030.25
2023-01-21T11:34:14.238Z,1030.24
2023-01-21T11:35:13.177Z,1030.24
2023-01-21T11:36:13.512Z,1030.28
2023-01-21T11:37:13.580Z,1030.25
2023-01-21T11:38:13.910Z,1030.26
2023-01-21T11:39:12.835Z,1030.23
2023-01-21T11:40:14.183Z,1030.25
2023-01-21T11:41:13.315Z,1030.24
2023-01-21T11:42:13.246Z,1030.22
2023-01-21T11:43:13.164Z,1030.22
2023-01-21T11:44:13.183Z,1030.26
2023-01-21T11:45:13.108Z,1030.26
2023-01-21T11:46:13.263Z,1030.25
2023-01-21T11:47:13.207Z,1030.27
2023-01-21T11:48:13.555Z,1030.30
2023-01-21T11:49:13.644Z,1030.29
2023-01-21T11:50:13.880Z,1030.22
2023-01-21T11:51:12.951Z,1030.23
2023-01-21T11:52:13.078Z,1030.17
2023-01-21T11:53:13.111Z,1030.19
2023-01-21T11:54:13.437Z,1030.17
2023-01-21T11:55:13.542Z,1030.19
2023-01-21T11:56:13.467Z,1030.26
2023-01-21T11:57:13.675Z,1030.17
2023-01-21T11:58:13.776Z,1030.17
2023-01-21T11:59:13.943Z,1030.19
2023-01-21T12:00:12.953Z,1030.22
2023-01-21T12:01:13.122Z,1030.20
2023-01-21T12:02:13.541Z,1030.17
2023-01-21T12:03:13.541Z,1030.21
2023-01-21T12:04:13.678Z,1030.21
2023-01-21T12:05:13.720Z,1030.19